sensor_id;sensor_type;location;lat;lon;timestamp;temperature;humidity
71142;DHT22;58808;59.366;17.970;2023-07-09T00:00:23;18.30;99.90
71142;DHT22;58808;59.366;17.970;2023-07-09T00:02:49;18.30;99.90
71142;DHT22;58808;59.366;17.970;2023-07-09T00:05:16;18.40;99.90
71142;DHT22;58808;59.366;17.970;2023-07-09T00:07:43;18.30;99.90
71142;DHT22;58808;59.366;17.970;2023-07-09T00:10:27;18.20;99.90
71142;DHT22;58808;59.366;17.970;2023-07-09T00:12:53;18.10;99.90
71142;DHT22;58808;59.366;17.970;2023-07-09T00:15:19;18.10;99.90
71142;DHT22;58808;59.366;17.970;2023-07-09T00:17:44;18.10;99.90
71142;DHT22;58808;59.366;17.970;2023-07-09T00:20:13;18.00;99.90
71142;DHT22;58808;59.366;17.970;2023-07-09T00:22:41;18.00;99.90
71142;DHT22;58808;59.366;17.970;2023-07-09T00:25:11;18.00;99.90
71142;DHT22;58808;59.366;17.970;2023-07-09T00:27:42;17.90;99.90
71142;DHT22;58808;59.366;17.970;2023-07-09T00:30:20;17.80;99.90
71142;DHT22;58808;59.366;17.970;2023-07-09T00:32:48;17.60;99.90
71142;DHT22;58808;59.366;17.970;2023-07-09T00:35:14;17.70;99.90
71142;DHT22;58808;59.366;17.970;2023-07-09T00:37:42;17.70;99.90
71142;DHT22;58808;59.366;17.970;2023-07-09T00:40:18;17.80;99.90
71142;DHT22;58808;59.366;17.970;2023-07-09T00:42:47;17.70;99.90
71142;DHT22;58808;59.366;17.970;2023-07-09T00:45:25;17.70;99.90
71142;DHT22;58808;59.366;17.970;2023-07-09T00:48:00;17.80;99.90
71142;DHT22;58808;59.366;17.970;2023-07-09T00:50:40;17.80;99.90
71142;DHT22;58808;59.366;17.970;2023-07-09T00:53:19;17.90;99.90
71142;DHT22;58808;59.366;17.970;2023-07-09T00:55:51;17.90;99.90
71142;DHT22;58808;59.366;17.970;2023-07-09T00:58:20;17.80;99.90
71142;DHT22;58808;59.366;17.970;2023-07-09T01:00:50;17.70;99.90
71142;DHT22;58808;59.366;17.970;2023-07-09T01:03:25;17.70;99.90
71142;DHT22;58808;59.366;17.970;2023-07-09T01:05:55;17.70;99.90
71142;DHT22;58808;59.366;17.970;2023-07-09T01:08:23;17.60;99.90
71142;DHT22;58808;59.366;17.970;2023-07-09T01:10:49;17.60;99.90
71142;DHT22;58808;59.366;17.970;2023-07-09T01:13:16;17.60;99.90
71142;DHT22;58808;59.366;17.970;2023-07-09T01:15:45;17.70;99.90
71142;DHT22;58808;59.366;17.970;2023-07-09T01:18:12;17.70;99.90
71142;DHT22;58808;59.366;17.970;2023-07-09T01:20:40;17.60;99.90
71142;DHT22;58808;59.366;17.970;2023-07-09T01:23:06;17.60;99.90
71142;DHT22;58808;59.366;17.970;2023-07-09T01:25:33;17.60;99.90
71142;DHT22;58808;59.366;17.970;2023-07-09T01:28:00;17.60;99.90
71142;DHT22;58808;59.366;17.970;2023-07-09T01:30:32;17.50;99.90
71142;DHT22;58808;59.366;17.970;2023-07-09T01:33:00;17.40;99.90
71142;DHT22;58808;59.366;17.970;2023-07-09T01:35:27;17.30;99.90
71142;DHT22;58808;59.366;17.970;2023-07-09T01:37:54;17.20;99.90
71142;DHT22;58808;59.366;17.970;2023-07-09T01:40:22;17.20;99.90
71142;DHT22;58808;59.366;17.970;2023-07-09T01:42:50;17.20;99.90
71142;DHT22;58808;59.366;17.970;2023-07-09T01:45:16;17.30;99.90
71142;DHT22;58808;59.366;17.970;2023-07-09T01:47:43;17.40;99.90
71142;DHT22;58808;59.366;17.970;2023-07-09T01:50:10;17.20;99.90
71142;DHT22;58808;59.366;17.970;2023-07-09T01:52:37;17.20;99.90
71142;DHT22;58808;59.366;17.970;2023-07-09T01:55:04;16.90;99.90
71142;DHT22;58808;59.366;17.970;2023-07-09T01:57:30;16.90;99.90
71142;DHT22;58808;59.366;17.970;2023-07-09T02:00:06;17.00;99.90
71142;DHT22;58808;59.366;17.970;2023-07-09T02:02:36;17.00;99.90
71142;DHT22;58808;59.366;17.970;2023-07-09T02:05:04;17.00;99.90
71142;DHT22;58808;59.366;17.970;2023-07-09T02:07:30;17.10;99.90
71142;DHT22;58808;59.366;17.970;2023-07-09T02:09:58;17.00;99.90
71142;DHT22;58808;59.366;17.970;2023-07-09T02:12:24;17.00;99.90
71142;DHT22;58808;59.366;17.970;2023-07-09T02:14:50;17.00;99.90
71142;DHT22;58808;59.366;17.970;2023-07-09T02:17:16;17.00;99.90
71142;DHT22;58808;59.366;17.970;2023-07-09T02:19:42;16.90;99.90
71142;DHT22;58808;59.366;17.970;2023-07-09T02:22:08;16.90;99.90
71142;DHT22;58808;59.366;17.970;2023-07-09T02:24:34;17.00;99.90
71142;DHT22;58808;59.366;17.970;2023-07-09T02:27:02;16.90;99.90
71142;DHT22;58808;59.366;17.970;2023-07-09T02:29:30;16.90;99.90
71142;DHT22;58808;59.366;17.970;2023-07-09T02:31:57;16.80;99.90
71142;DHT22;58808;59.366;17.970;2023-07-09T02:34:25;16.80;99.90
71142;DHT22;58808;59.366;17.970;2023-07-09T02:36:55;16.80;99.90
71142;DHT22;58808;59.366;17.970;2023-07-09T02:39:22;16.80;99.90
71142;DHT22;58808;59.366;17.970;2023-07-09T02:41:49;16.80;99.90
71142;DHT22;58808;59.366;17.970;2023-07-09T02:44:16;16.80;99.90
71142;DHT22;58808;59.366;17.970;2023-07-09T02:46:42;16.80;99.90
71142;DHT22;58808;59.366;17.970;2023-07-09T02:49:10;16.80;99.90
71142;DHT22;58808;59.366;17.970;2023-07-09T02:51:37;16.70;99.90
71142;DHT22;58808;59.366;17.970;2023-07-09T02:54:03;16.80;99.90
71142;DHT22;58808;59.366;17.970;2023-07-09T02:56:30;16.80;99.90
71142;DHT22;58808;59.366;17.970;2023-07-09T02:58:56;16.70;99.90
71142;DHT22;58808;59.366;17.970;2023-07-09T03:01:22;16.60;99.90
71142;DHT22;58808;59.366;17.970;2023-07-09T03:03:57;16.60;99.90
71142;DHT22;58808;59.366;17.970;2023-07-09T03:06:25;16.60;99.90
71142;DHT22;58808;59.366;17.970;2023-07-09T03:08:52;16.50;99.90
71142;DHT22;58808;59.366;17.970;2023-07-09T03:11:19;16.60;99.90
71142;DHT22;58808;59.366;17.970;2023-07-09T03:13:45;16.60;99.90
71142;DHT22;58808;59.366;17.970;2023-07-09T03:16:11;16.60;99.90
71142;DHT22;58808;59.366;17.970;2023-07-09T03:18:38;16.60;99.90
71142;DHT22;58808;59.366;17.970;2023-07-09T03:21:04;16.70;99.90
71142;DHT22;58808;59.366;17.970;2023-07-09T03:23:30;16.70;99.90
71142;DHT22;58808;59.366;17.970;2023-07-09T03:25:55;16.70;99.90
71142;DHT22;58808;59.366;17.970;2023-07-09T03:28:22;16.80;99.90
71142;DHT22;58808;59.366;17.970;2023-07-09T03:30:49;16.70;99.90
71142;DHT22;58808;59.366;17.970;2023-07-09T03:33:16;16.70;99.90
71142;DHT22;58808;59.366;17.970;2023-07-09T03:35:43;16.70;99.90
71142;DHT22;58808;59.366;17.970;2023-07-09T03:38:09;16.70;99.90
71142;DHT22;58808;59.366;17.970;2023-07-09T03:40:36;16.70;99.90
71142;DHT22;58808;59.366;17.970;2023-07-09T03:43:04;16.60;99.90
71142;DHT22;58808;59.366;17.970;2023-07-09T03:45:30;16.70;99.90
71142;DHT22;58808;59.366;17.970;2023-07-09T03:47:55;16.80;99.90
71142;DHT22;58808;59.366;17.970;2023-07-09T03:50:22;16.80;99.90
71142;DHT22;58808;59.366;17.970;2023-07-09T03:52:47;16.80;99.90
71142;DHT22;58808;59.366;17.970;2023-07-09T03:55:13;16.90;99.90
71142;DHT22;58808;59.366;17.970;2023-07-09T03:57:40;16.80;99.90
71142;DHT22;58808;59.366;17.970;2023-07-09T04:00:06;16.80;99.90
71142;DHT22;58808;59.366;17.970;2023-07-09T04:02:39;16.90;99.90
71142;DHT22;58808;59.366;17.970;2023-07-09T04:05:06;16.90;99.90
71142;DHT22;58808;59.366;17.970;2023-07-09T04:07:34;16.90;99.90
71142;DHT22;58808;59.366;17.970;2023-07-09T04:10:00;16.90;99.90
71142;DHT22;58808;59.366;17.970;2023-07-09T04:12:26;16.80;99.90
71142;DHT22;58808;59.366;17.970;2023-07-09T04:14:51;16.90;99.90
71142;DHT22;58808;59.366;17.970;2023-07-09T04:17:17;17.00;99.90
71142;DHT22;58808;59.366;17.970;2023-07-09T04:19:43;17.10;99.90
71142;DHT22;58808;59.366;17.970;2023-07-09T04:22:10;17.10;99.90
71142;DHT22;58808;59.366;17.970;2023-07-09T04:24:36;17.10;99.90
71142;DHT22;58808;59.366;17.970;2023-07-09T04:27:02;17.10;99.90
71142;DHT22;58808;59.366;17.970;2023-07-09T04:29:32;17.20;99.90
71142;DHT22;58808;59.366;17.970;2023-07-09T04:32:04;17.20;99.90
71142;DHT22;58808;59.366;17.970;2023-07-09T04:34:30;17.30;99.90
71142;DHT22;58808;59.366;17.970;2023-07-09T04:36:55;17.30;99.90
71142;DHT22;58808;59.366;17.970;2023-07-09T04:39:21;17.30;99.90
71142;DHT22;58808;59.366;17.970;2023-07-09T04:41:47;17.40;99.90
71142;DHT22;58808;59.366;17.970;2023-07-09T04:44:13;17.40;99.90
71142;DHT22;58808;59.366;17.970;2023-07-09T04:46:39;17.50;99.90
71142;DHT22;58808;59.366;17.970;2023-07-09T04:49:05;17.50;99.90
71142;DHT22;58808;59.366;17.970;2023-07-09T04:51:31;17.60;99.90
71142;DHT22;58808;59.366;17.970;2023-07-09T04:53:57;17.70;99.90
71142;DHT22;58808;59.366;17.970;2023-07-09T04:56:23;17.70;99.90
71142;DHT22;58808;59.366;17.970;2023-07-09T04:58:49;17.80;99.90
71142;DHT22;58808;59.366;17.970;2023-07-09T05:01:14;17.80;99.90
71142;DHT22;58808;59.366;17.970;2023-07-09T05:03:40;17.80;99.90
71142;DHT22;58808;59.366;17.970;2023-07-09T05:06:06;17.90;99.90
71142;DHT22;58808;59.366;17.970;2023-07-09T05:08:31;17.90;99.90
71142;DHT22;58808;59.366;17.970;2023-07-09T05:10:58;17.90;99.90
71142;DHT22;58808;59.366;17.970;2023-07-09T05:13:24;18.00;99.90
71142;DHT22;58808;59.366;17.970;2023-07-09T05:15:51;18.00;99.90
71142;DHT22;58808;59.366;17.970;2023-07-09T05:18:17;18.00;99.90
71142;DHT22;58808;59.366;17.970;2023-07-09T05:20:43;18.00;99.90
71142;DHT22;58808;59.366;17.970;2023-07-09T05:23:10;18.00;99.90
71142;DHT22;58808;59.366;17.970;2023-07-09T05:25:36;18.10;99.90
71142;DHT22;58808;59.366;17.970;2023-07-09T05:28:02;18.20;99.90
71142;DHT22;58808;59.366;17.970;2023-07-09T05:30:28;18.20;99.90
71142;DHT22;58808;59.366;17.970;2023-07-09T05:32:54;18.20;99.90
71142;DHT22;58808;59.366;17.970;2023-07-09T05:35:23;18.20;99.90
71142;DHT22;58808;59.366;17.970;2023-07-09T05:37:51;18.20;99.90
71142;DHT22;58808;59.366;17.970;2023-07-09T05:40:17;18.20;99.90
71142;DHT22;58808;59.366;17.970;2023-07-09T05:42:42;18.20;99.90
71142;DHT22;58808;59.366;17.970;2023-07-09T05:45:08;18.30;99.90
71142;DHT22;58808;59.366;17.970;2023-07-09T05:47:34;18.30;99.90
71142;DHT22;58808;59.366;17.970;2023-07-09T05:50:00;18.30;99.90
71142;DHT22;58808;59.366;17.970;2023-07-09T05:52:26;18.30;99.90
71142;DHT22;58808;59.366;17.970;2023-07-09T05:54:54;18.40;99.90
71142;DHT22;58808;59.366;17.970;2023-07-09T05:57:20;18.40;99.90
71142;DHT22;58808;59.366;17.970;2023-07-09T05:59:46;18.40;99.90
71142;DHT22;58808;59.366;17.970;2023-07-09T06:02:13;18.40;99.90
71142;DHT22;58808;59.366;17.970;2023-07-09T06:04:39;18.50;99.90
71142;DHT22;58808;59.366;17.970;2023-07-09T06:07:05;18.50;99.90
71142;DHT22;58808;59.366;17.970;2023-07-09T06:09:32;18.50;99.90
71142;DHT22;58808;59.366;17.970;2023-07-09T06:11:58;18.50;99.90
71142;DHT22;58808;59.366;17.970;2023-07-09T06:14:25;18.60;99.90
71142;DHT22;58808;59.366;17.970;2023-07-09T06:16:50;18.60;99.90
71142;DHT22;58808;59.366;17.970;2023-07-09T06:19:16;18.60;99.90
71142;DHT22;58808;59.366;17.970;2023-07-09T06:21:42;18.60;99.90
71142;DHT22;58808;59.366;17.970;2023-07-09T06:24:08;18.70;99.90
71142;DHT22;58808;59.366;17.970;2023-07-09T06:26:34;18.70;99.90
71142;DHT22;58808;59.366;17.970;2023-07-09T06:29:00;18.70;99.90
71142;DHT22;58808;59.366;17.970;2023-07-09T06:31:26;18.70;99.90
71142;DHT22;58808;59.366;17.970;2023-07-09T06:33:51;18.80;99.90
71142;DHT22;58808;59.366;17.970;2023-07-09T06:36:18;18.90;99.90
71142;DHT22;58808;59.366;17.970;2023-07-09T06:38:45;18.90;99.90
71142;DHT22;58808;59.366;17.970;2023-07-09T06:41:11;18.90;99.90
71142;DHT22;58808;59.366;17.970;2023-07-09T06:43:37;19.00;99.90
71142;DHT22;58808;59.366;17.970;2023-07-09T06:46:07;19.00;99.90
71142;DHT22;58808;59.366;17.970;2023-07-09T06:48:33;19.00;99.90
71142;DHT22;58808;59.366;17.970;2023-07-09T06:50:59;19.10;99.90
71142;DHT22;58808;59.366;17.970;2023-07-09T06:53:26;19.10;99.90
71142;DHT22;58808;59.366;17.970;2023-07-09T06:55:53;19.10;99.90
71142;DHT22;58808;59.366;17.970;2023-07-09T06:58:22;19.20;99.90
71142;DHT22;58808;59.366;17.970;2023-07-09T07:00:50;19.30;99.90
71142;DHT22;58808;59.366;17.970;2023-07-09T07:03:16;19.30;99.90
71142;DHT22;58808;59.366;17.970;2023-07-09T07:05:49;19.40;99.90
71142;DHT22;58808;59.366;17.970;2023-07-09T07:08:17;19.60;99.90
71142;DHT22;58808;59.366;17.970;2023-07-09T07:10:44;19.70;99.90
71142;DHT22;58808;59.366;17.970;2023-07-09T07:13:09;19.70;99.90
71142;DHT22;58808;59.366;17.970;2023-07-09T07:15:37;19.90;99.90
71142;DHT22;58808;59.366;17.970;2023-07-09T07:18:03;20.00;99.90
71142;DHT22;58808;59.366;17.970;2023-07-09T07:20:30;20.20;99.90
71142;DHT22;58808;59.366;17.970;2023-07-09T07:22:56;20.30;99.90
71142;DHT22;58808;59.366;17.970;2023-07-09T07:25:23;20.60;99.90
71142;DHT22;58808;59.366;17.970;2023-07-09T07:27:49;20.60;99.90
71142;DHT22;58808;59.366;17.970;2023-07-09T07:30:15;20.60;99.90
71142;DHT22;58808;59.366;17.970;2023-07-09T07:32:46;20.80;99.90
71142;DHT22;58808;59.366;17.970;2023-07-09T07:35:12;20.90;99.90
71142;DHT22;58808;59.366;17.970;2023-07-09T07:37:42;21.00;99.90
71142;DHT22;58808;59.366;17.970;2023-07-09T07:40:09;21.20;99.90
71142;DHT22;58808;59.366;17.970;2023-07-09T07:42:34;21.30;99.90
71142;DHT22;58808;59.366;17.970;2023-07-09T07:45:00;21.40;99.90
71142;DHT22;58808;59.366;17.970;2023-07-09T07:47:27;21.50;99.90
71142;DHT22;58808;59.366;17.970;2023-07-09T07:49:53;21.70;99.90
71142;DHT22;58808;59.366;17.970;2023-07-09T07:52:19;21.80;99.90
71142;DHT22;58808;59.366;17.970;2023-07-09T07:54:45;22.00;99.90
71142;DHT22;58808;59.366;17.970;2023-07-09T07:57:11;22.10;99.90
71142;DHT22;58808;59.366;17.970;2023-07-09T07:59:38;22.30;99.90
71142;DHT22;58808;59.366;17.970;2023-07-09T08:02:07;22.40;99.90
71142;DHT22;58808;59.366;17.970;2023-07-09T08:04:36;22.50;99.90
71142;DHT22;58808;59.366;17.970;2023-07-09T08:07:01;22.60;99.90
71142;DHT22;58808;59.366;17.970;2023-07-09T08:09:27;22.70;99.90
71142;DHT22;58808;59.366;17.970;2023-07-09T08:11:53;22.80;99.90
71142;DHT22;58808;59.366;17.970;2023-07-09T08:14:19;22.90;99.90
71142;DHT22;58808;59.366;17.970;2023-07-09T08:16:46;22.90;99.90
71142;DHT22;58808;59.366;17.970;2023-07-09T08:19:12;23.00;99.90
71142;DHT22;58808;59.366;17.970;2023-07-09T08:21:37;23.10;99.90
71142;DHT22;58808;59.366;17.970;2023-07-09T08:24:03;23.20;99.90
71142;DHT22;58808;59.366;17.970;2023-07-09T08:26:29;23.20;99.70
71142;DHT22;58808;59.366;17.970;2023-07-09T08:28:56;23.30;99.80
71142;DHT22;58808;59.366;17.970;2023-07-09T08:31:22;23.40;99.40
71142;DHT22;58808;59.366;17.970;2023-07-09T08:33:48;23.50;99.10
71142;DHT22;58808;59.366;17.970;2023-07-09T08:36:14;23.50;97.70
71142;DHT22;58808;59.366;17.970;2023-07-09T08:38:40;23.50;98.10
71142;DHT22;58808;59.366;17.970;2023-07-09T08:52:33;23.70;95.00
71142;DHT22;58808;59.366;17.970;2023-07-09T08:55:08;23.80;95.60
71142;DHT22;58808;59.366;17.970;2023-07-09T08:57:39;24.00;94.80
71142;DHT22;58808;59.366;17.970;2023-07-09T09:00:31;24.00;92.90
71142;DHT22;58808;59.366;17.970;2023-07-09T09:03:08;24.20;94.00
71142;DHT22;58808;59.366;17.970;2023-07-09T09:05:41;24.20;92.50
71142;DHT22;58808;59.366;17.970;2023-07-09T09:08:40;24.20;92.20
71142;DHT22;58808;59.366;17.970;2023-07-09T09:13:41;24.00;92.80
71142;DHT22;58808;59.366;17.970;2023-07-09T09:16:32;24.00;93.20
71142;DHT22;58808;59.366;17.970;2023-07-09T09:19:01;23.90;93.20
71142;DHT22;58808;59.366;17.970;2023-07-09T09:21:36;24.00;93.70
71142;DHT22;58808;59.366;17.970;2023-07-09T09:27:04;24.10;92.70
71142;DHT22;58808;59.366;17.970;2023-07-09T09:29:31;24.30;91.80
71142;DHT22;58808;59.366;17.970;2023-07-09T09:31:58;24.40;91.80
71142;DHT22;58808;59.366;17.970;2023-07-09T09:34:28;24.60;90.20
71142;DHT22;58808;59.366;17.970;2023-07-09T09:36:56;24.70;88.20
71142;DHT22;58808;59.366;17.970;2023-07-09T09:39:24;24.80;89.90
71142;DHT22;58808;59.366;17.970;2023-07-09T09:41:54;24.80;86.70
71142;DHT22;58808;59.366;17.970;2023-07-09T09:44:24;25.00;84.90
71142;DHT22;58808;59.366;17.970;2023-07-09T09:46:50;25.10;85.40
71142;DHT22;58808;59.366;17.970;2023-07-09T09:49:16;25.10;86.30
71142;DHT22;58808;59.366;17.970;2023-07-09T09:51:45;25.20;83.50
71142;DHT22;58808;59.366;17.970;2023-07-09T09:54:17;25.20;84.10
71142;DHT22;58808;59.366;17.970;2023-07-09T09:56:43;25.20;84.90
71142;DHT22;58808;59.366;17.970;2023-07-09T09:59:21;25.40;84.40
71142;DHT22;58808;59.366;17.970;2023-07-09T10:01:47;25.60;83.30
71142;DHT22;58808;59.366;17.970;2023-07-09T10:04:21;25.60;80.60
71142;DHT22;58808;59.366;17.970;2023-07-09T10:06:51;25.60;82.30
71142;DHT22;58808;59.366;17.970;2023-07-09T10:15:16;25.60;76.60
71142;DHT22;58808;59.366;17.970;2023-07-09T10:18:03;25.60;79.40
71142;DHT22;58808;59.366;17.970;2023-07-09T10:23:32;25.30;73.50
71142;DHT22;58808;59.366;17.970;2023-07-09T10:26:11;25.30;76.50
71142;DHT22;58808;59.366;17.970;2023-07-09T10:28:59;25.20;74.60
71142;DHT22;58808;59.366;17.970;2023-07-09T10:31:41;25.00;75.10
71142;DHT22;58808;59.366;17.970;2023-07-09T10:34:40;25.20;78.00
71142;DHT22;58808;59.366;17.970;2023-07-09T10:39:48;25.10;75.30
71142;DHT22;58808;59.366;17.970;2023-07-09T10:42:22;25.20;73.40
71142;DHT22;58808;59.366;17.970;2023-07-09T10:44:58;25.30;74.30
71142;DHT22;58808;59.366;17.970;2023-07-09T10:47:41;25.20;73.90
71142;DHT22;58808;59.366;17.970;2023-07-09T10:50:27;25.50;74.30
71142;DHT22;58808;59.366;17.970;2023-07-09T10:52:58;25.70;72.80
71142;DHT22;58808;59.366;17.970;2023-07-09T10:55:49;25.80;71.30
71142;DHT22;58808;59.366;17.970;2023-07-09T10:58:27;26.00;68.40
71142;DHT22;58808;59.366;17.970;2023-07-09T11:00:54;26.20;69.00
71142;DHT22;58808;59.366;17.970;2023-07-09T11:03:28;26.30;69.30
71142;DHT22;58808;59.366;17.970;2023-07-09T11:05:57;26.40;71.50
71142;DHT22;58808;59.366;17.970;2023-07-09T11:08:38;26.50;70.00
71142;DHT22;58808;59.366;17.970;2023-07-09T11:11:32;26.70;68.30
71142;DHT22;58808;59.366;17.970;2023-07-09T11:14:27;26.60;63.20
71142;DHT22;58808;59.366;17.970;2023-07-09T11:16:57;26.40;63.70
71142;DHT22;58808;59.366;17.970;2023-07-09T11:19:24;26.10;65.80
71142;DHT22;58808;59.366;17.970;2023-07-09T11:22:14;25.90;65.70
71142;DHT22;58808;59.366;17.970;2023-07-09T11:24:48;25.80;66.30
71142;DHT22;58808;59.366;17.970;2023-07-09T11:27:24;25.70;65.60
71142;DHT22;58808;59.366;17.970;2023-07-09T11:30:21;25.40;65.50
71142;DHT22;58808;59.366;17.970;2023-07-09T11:32:53;25.20;64.10
71142;DHT22;58808;59.366;17.970;2023-07-09T11:35:24;25.00;64.30
71142;DHT22;58808;59.366;17.970;2023-07-09T11:37:51;24.90;65.40
71142;DHT22;58808;59.366;17.970;2023-07-09T11:40:18;24.80;66.40
71142;DHT22;58808;59.366;17.970;2023-07-09T11:42:58;25.00;69.80
71142;DHT22;58808;59.366;17.970;2023-07-09T11:45:33;25.40;71.00
71142;DHT22;58808;59.366;17.970;2023-07-09T11:48:26;25.80;68.60
71142;DHT22;58808;59.366;17.970;2023-07-09T11:50:53;25.90;66.90
71142;DHT22;58808;59.366;17.970;2023-07-09T11:53:49;25.90;65.00
71142;DHT22;58808;59.366;17.970;2023-07-09T11:56:24;25.80;66.70
71142;DHT22;58808;59.366;17.970;2023-07-09T11:58:54;25.70;66.80
71142;DHT22;58808;59.366;17.970;2023-07-09T12:01:23;25.50;67.70
71142;DHT22;58808;59.366;17.970;2023-07-09T12:03:50;25.30;66.20
71142;DHT22;58808;59.366;17.970;2023-07-09T12:06:17;25.10;66.90
71142;DHT22;58808;59.366;17.970;2023-07-09T12:08:45;24.80;69.00
71142;DHT22;58808;59.366;17.970;2023-07-09T12:11:33;24.70;70.70
71142;DHT22;58808;59.366;17.970;2023-07-09T12:14:11;24.60;71.10
71142;DHT22;58808;59.366;17.970;2023-07-09T12:16:43;24.90;71.30
71142;DHT22;58808;59.366;17.970;2023-07-09T12:19:12;25.10;70.40
71142;DHT22;58808;59.366;17.970;2023-07-09T12:21:39;25.30;67.10
71142;DHT22;58808;59.366;17.970;2023-07-09T12:24:22;25.30;68.30
71142;DHT22;58808;59.366;17.970;2023-07-09T12:27:25;25.20;67.50
71142;DHT22;58808;59.366;17.970;2023-07-09T12:29:55;25.10;69.30
71142;DHT22;58808;59.366;17.970;2023-07-09T12:32:21;24.90;69.00
71142;DHT22;58808;59.366;17.970;2023-07-09T12:34:53;24.80;68.70
71142;DHT22;58808;59.366;17.970;2023-07-09T12:37:21;24.80;70.30
71142;DHT22;58808;59.366;17.970;2023-07-09T12:39:51;24.60;70.20
71142;DHT22;58808;59.366;17.970;2023-07-09T12:42:22;24.60;70.70
71142;DHT22;58808;59.366;17.970;2023-07-09T12:44:50;24.40;70.70
71142;DHT22;58808;59.366;17.970;2023-07-09T12:47:17;24.30;71.30
71142;DHT22;58808;59.366;17.970;2023-07-09T12:49:44;24.20;71.60
71142;DHT22;58808;59.366;17.970;2023-07-09T12:52:19;24.40;71.60
71142;DHT22;58808;59.366;17.970;2023-07-09T12:54:55;24.70;71.70
71142;DHT22;58808;59.366;17.970;2023-07-09T12:57:21;25.10;71.10
71142;DHT22;58808;59.366;17.970;2023-07-09T12:59:48;25.50;68.70
71142;DHT22;58808;59.366;17.970;2023-07-09T13:04:40;26.00;66.30
71142;DHT22;58808;59.366;17.970;2023-07-09T13:09:50;26.40;66.30
71142;DHT22;58808;59.366;17.970;2023-07-09T13:12:16;26.50;65.20
71142;DHT22;58808;59.366;17.970;2023-07-09T13:14:42;26.50;66.50
71142;DHT22;58808;59.366;17.970;2023-07-09T13:17:16;26.70;62.60
71142;DHT22;58808;59.366;17.970;2023-07-09T13:19:42;26.80;64.80
71142;DHT22;58808;59.366;17.970;2023-07-09T13:22:10;26.70;62.60
71142;DHT22;58808;59.366;17.970;2023-07-09T13:24:37;26.60;58.90
71142;DHT22;58808;59.366;17.970;2023-07-09T13:27:04;26.40;60.60
71142;DHT22;58808;59.366;17.970;2023-07-09T13:29:33;26.30;61.90
71142;DHT22;58808;59.366;17.970;2023-07-09T13:31:59;26.00;60.70
71142;DHT22;58808;59.366;17.970;2023-07-09T13:34:27;25.70;61.30
71142;DHT22;58808;59.366;17.970;2023-07-09T13:36:54;25.40;62.50
71142;DHT22;58808;59.366;17.970;2023-07-09T13:39:22;25.30;63.40
71142;DHT22;58808;59.366;17.970;2023-07-09T13:41:50;25.20;64.30
71142;DHT22;58808;59.366;17.970;2023-07-09T13:44:19;25.10;65.30
71142;DHT22;58808;59.366;17.970;2023-07-09T13:46:45;25.20;64.50
71142;DHT22;58808;59.366;17.970;2023-07-09T13:49:13;25.40;64.50
71142;DHT22;58808;59.366;17.970;2023-07-09T13:51:40;25.70;63.70
71142;DHT22;58808;59.366;17.970;2023-07-09T13:56:46;26.10;59.60
71142;DHT22;58808;59.366;17.970;2023-07-09T13:59:32;26.20;58.70
71142;DHT22;58808;59.366;17.970;2023-07-09T14:01:58;26.00;59.80
71142;DHT22;58808;59.366;17.970;2023-07-09T14:04:26;25.80;63.20
71142;DHT22;58808;59.366;17.970;2023-07-09T14:06:52;25.30;67.10
71142;DHT22;58808;59.366;17.970;2023-07-09T14:09:18;24.90;69.00
71142;DHT22;58808;59.366;17.970;2023-07-09T14:11:46;24.60;70.50
71142;DHT22;58808;59.366;17.970;2023-07-09T14:14:33;24.30;71.90
71142;DHT22;58808;59.366;17.970;2023-07-09T14:16:58;24.00;73.40
71142;DHT22;58808;59.366;17.970;2023-07-09T14:19:26;24.00;73.80
71142;DHT22;58808;59.366;17.970;2023-07-09T14:21:52;24.00;74.00
71142;DHT22;58808;59.366;17.970;2023-07-09T14:26:49;24.10;75.10
71142;DHT22;58808;59.366;17.970;2023-07-09T14:29:16;24.40;73.90
71142;DHT22;58808;59.366;17.970;2023-07-09T14:31:42;24.80;72.80
71142;DHT22;58808;59.366;17.970;2023-07-09T14:36:43;25.40;70.00
71142;DHT22;58808;59.366;17.970;2023-07-09T14:39:12;25.30;69.90
71142;DHT22;58808;59.366;17.970;2023-07-09T14:41:38;25.00;70.80
71142;DHT22;58808;59.366;17.970;2023-07-09T14:44:25;24.70;72.00
71142;DHT22;58808;59.366;17.970;2023-07-09T14:46:52;24.40;72.50
71142;DHT22;58808;59.366;17.970;2023-07-09T14:49:19;24.20;73.40
71142;DHT22;58808;59.366;17.970;2023-07-09T14:51:46;24.10;74.10
71142;DHT22;58808;59.366;17.970;2023-07-09T14:54:27;23.90;73.80
71142;DHT22;58808;59.366;17.970;2023-07-09T14:56:54;23.70;74.30
71142;DHT22;58808;59.366;17.970;2023-07-09T14:59:21;23.60;75.40
71142;DHT22;58808;59.366;17.970;2023-07-09T15:01:47;23.60;76.10
71142;DHT22;58808;59.366;17.970;2023-07-09T15:04:39;23.60;76.30
71142;DHT22;58808;59.366;17.970;2023-07-09T15:07:08;23.60;75.70
71142;DHT22;58808;59.366;17.970;2023-07-09T15:09:36;23.70;77.10
71142;DHT22;58808;59.366;17.970;2023-07-09T15:12:03;23.90;75.70
71142;DHT22;58808;59.366;17.970;2023-07-09T15:14:28;24.20;76.10
71142;DHT22;58808;59.366;17.970;2023-07-09T15:16:54;24.30;74.90
71142;DHT22;58808;59.366;17.970;2023-07-09T15:19:21;24.40;73.40
71142;DHT22;58808;59.366;17.970;2023-07-09T15:21:49;24.40;73.00
71142;DHT22;58808;59.366;17.970;2023-07-09T15:24:21;24.40;73.30
71142;DHT22;58808;59.366;17.970;2023-07-09T15:26:51;24.40;73.50
71142;DHT22;58808;59.366;17.970;2023-07-09T15:29:19;24.30;72.40
71142;DHT22;58808;59.366;17.970;2023-07-09T15:31:45;24.10;73.00
71142;DHT22;58808;59.366;17.970;2023-07-09T15:34:11;23.90;73.90
71142;DHT22;58808;59.366;17.970;2023-07-09T15:36:37;23.80;74.70
71142;DHT22;58808;59.366;17.970;2023-07-09T15:39:03;23.80;74.90
71142;DHT22;58808;59.366;17.970;2023-07-09T15:41:29;23.80;74.60
71142;DHT22;58808;59.366;17.970;2023-07-09T15:43:54;23.90;75.40
71142;DHT22;58808;59.366;17.970;2023-07-09T15:46:21;23.70;74.10
71142;DHT22;58808;59.366;17.970;2023-07-09T15:48:50;23.80;73.30
71142;DHT22;58808;59.366;17.970;2023-07-09T15:51:16;23.70;74.30
71142;DHT22;58808;59.366;17.970;2023-07-09T15:53:42;23.80;73.00
71142;DHT22;58808;59.366;17.970;2023-07-09T15:56:20;23.80;71.80
71142;DHT22;58808;59.366;17.970;2023-07-09T15:58:47;23.80;72.20
71142;DHT22;58808;59.366;17.970;2023-07-09T16:01:14;23.90;73.10
71142;DHT22;58808;59.366;17.970;2023-07-09T16:03:49;23.90;73.80
71142;DHT22;58808;59.366;17.970;2023-07-09T16:06:17;24.00;73.90
71142;DHT22;58808;59.366;17.970;2023-07-09T16:08:43;24.00;74.30